sensor_id;sensor_type;location;lat;lon;timestamp;P1;durP1;ratioP1;P2;durP2;ratioP2
17925;SDS011;9088;55.674;13.354;2023-04-30T00:01:26;0.80;;;0.80;;
17925;SDS011;9088;55.674;13.354;2023-04-30T00:03:53;0.80;;;0.80;;
17925;SDS011;9088;55.674;13.354;2023-04-30T00:06:22;0.80;;;0.80;;
17925;SDS011;9088;55.674;13.354;2023-04-30T00:08:49;0.80;;;0.80;;
17925;SDS011;9088;55.674;13.354;2023-04-30T00:11:16;0.80;;;0.80;;
17925;SDS011;9088;55.674;13.354;2023-04-30T00:13:43;0.87;;;0.87;;
17925;SDS011;9088;55.674;13.354;2023-04-30T00:16:11;0.90;;;0.90;;
17925;SDS011;9088;55.674;13.354;2023-04-30T00:18:38;0.80;;;0.80;;
17925;SDS011;9088;55.674;13.354;2023-04-30T00:21:05;0.90;;;0.90;;
17925;SDS011;9088;55.674;13.354;2023-04-30T00:23:32;0.90;;;0.90;;
17925;SDS011;9088;55.674;13.354;2023-04-30T00:25:59;0.90;;;0.90;;
17925;SDS011;9088;55.674;13.354;2023-04-30T00:28:26;1.00;;;1.00;;
17925;SDS011;9088;55.674;13.354;2023-04-30T00:30:53;1.00;;;1.00;;
17925;SDS011;9088;55.674;13.354;2023-04-30T00:33:22;1.00;;;1.00;;
17925;SDS011;9088;55.674;13.354;2023-04-30T00:35:49;1.00;;;1.00;;
17925;SDS011;9088;55.674;13.354;2023-04-30T00:38:16;1.00;;;1.00;;
17925;SDS011;9088;55.674;13.354;2023-04-30T00:40:43;1.07;;;1.07;;
17925;SDS011;9088;55.674;13.354;2023-04-30T00:43:10;1.10;;;1.10;;
17925;SDS011;9088;55.674;13.354;2023-04-30T00:45:37;1.10;;;1.10;;
17925;SDS011;9088;55.674;13.354;2023-04-30T00:48:04;1.13;;;1.13;;
17925;SDS011;9088;55.674;13.354;2023-04-30T00:50:32;1.20;;;1.20;;
17925;SDS011;9088;55.674;13.354;2023-04-30T00:53:01;1.20;;;1.20;;
17925;SDS011;9088;55.674;13.354;2023-04-30T00:55:28;1.30;;;1.30;;
17925;SDS011;9088;55.674;13.354;2023-04-30T00:57:55;1.30;;;1.30;;
17925;SDS011;9088;55.674;13.354;2023-04-30T01:00:22;1.30;;;1.30;;
17925;SDS011;9088;55.674;13.354;2023-04-30T01:02:50;1.40;;;1.40;;
17925;SDS011;9088;55.674;13.354;2023-04-30T01:05:18;1.40;;;1.40;;
17925;SDS011;9088;55.674;13.354;2023-04-30T01:07:48;1.50;;;1.50;;
17925;SDS011;9088;55.674;13.354;2023-04-30T01:10:16;1.40;;;1.40;;
17925;SDS011;9088;55.674;13.354;2023-04-30T01:12:44;1.50;;;1.50;;
17925;SDS011;9088;55.674;13.354;2023-04-30T01:15:13;1.40;;;1.40;;
17925;SDS011;9088;55.674;13.354;2023-04-30T01:17:43;1.40;;;1.40;;
17925;SDS011;9088;55.674;13.354;2023-04-30T01:20:13;1.50;;;1.50;;
17925;SDS011;9088;55.674;13.354;2023-04-30T01:22:43;1.50;;;1.50;;
17925;SDS011;9088;55.674;13.354;2023-04-30T01:28:02;1.40;;;1.40;;
17925;SDS011;9088;55.674;13.354;2023-04-30T01:30:29;1.60;;;1.60;;
17925;SDS011;9088;55.674;13.354;2023-04-30T01:32:56;1.70;;;1.70;;
17925;SDS011;9088;55.674;13.354;2023-04-30T01:35:26;1.50;;;1.50;;
17925;SDS011;9088;55.674;13.354;2023-04-30T01:37:58;1.80;;;1.80;;
17925;SDS011;9088;55.674;13.354;2023-04-30T01:40:31;1.70;;;1.70;;
17925;SDS011;9088;55.674;13.354;2023-04-30T01:43:04;1.70;;;1.70;;
17925;SDS011;9088;55.674;13.354;2023-04-30T01:45:40;1.70;;;1.70;;
17925;SDS011;9088;55.674;13.354;2023-04-30T01:48:14;1.70;;;1.70;;
17925;SDS011;9088;55.674;13.354;2023-04-30T01:50:46;1.80;;;1.80;;
17925;SDS011;9088;55.674;13.354;2023-04-30T01:53:16;1.80;;;1.80;;
17925;SDS011;9088;55.674;13.354;2023-04-30T01:55:46;1.93;;;1.90;;
17925;SDS011;9088;55.674;13.354;2023-04-30T01:58:17;1.80;;;1.80;;
17925;SDS011;9088;55.674;13.354;2023-04-30T02:00:46;1.90;;;1.90;;
17925;SDS011;9088;55.674;13.354;2023-04-30T02:03:13;1.80;;;1.80;;
17925;SDS011;9088;55.674;13.354;2023-04-30T02:05:40;1.90;;;1.90;;
17925;SDS011;9088;55.674;13.354;2023-04-30T02:08:07;2.00;;;1.93;;
17925;SDS011;9088;55.674;13.354;2023-04-30T02:10:34;2.10;;;2.00;;
17925;SDS011;9088;55.674;13.354;2023-04-30T02:13:01;2.10;;;2.00;;
17925;SDS011;9088;55.674;13.354;2023-04-30T02:15:29;2.10;;;2.00;;
17925;SDS011;9088;55.674;13.354;2023-04-30T02:17:56;2.10;;;2.00;;
17925;SDS011;9088;55.674;13.354;2023-04-30T02:20:23;1.97;;;1.90;;
17925;SDS011;9088;55.674;13.354;2023-04-30T02:22:50;2.10;;;2.00;;
17925;SDS011;9088;55.674;13.354;2023-04-30T02:25:17;2.03;;;1.93;;
17925;SDS011;9088;55.674;13.354;2023-04-30T02:27:44;2.07;;;1.97;;
17925;SDS011;9088;55.674;13.354;2023-04-30T02:30:11;2.17;;;2.07;;
17925;SDS011;9088;55.674;13.354;2023-04-30T02:32:40;2.30;;;2.20;;
17925;SDS011;9088;55.674;13.354;2023-04-30T02:35:07;2.23;;;2.13;;
17925;SDS011;9088;55.674;13.354;2023-04-30T02:37:34;2.20;;;2.10;;
17925;SDS011;9088;55.674;13.354;2023-04-30T02:40:01;2.17;;;2.07;;
17925;SDS011;9088;55.674;13.354;2023-04-30T02:42:28;2.30;;;2.20;;
17925;SDS011;9088;55.674;13.354;2023-04-30T02:44:55;2.30;;;2.20;;
17925;SDS011;9088;55.674;13.354;2023-04-30T02:47:23;2.20;;;2.10;;
17925;SDS011;9088;55.674;13.354;2023-04-30T02:49:51;2.20;;;2.10;;
17925;SDS011;9088;55.674;13.354;2023-04-30T02:52:18;2.20;;;2.10;;
17925;SDS011;9088;55.674;13.354;2023-04-30T02:54:45;2.10;;;2.00;;
17925;SDS011;9088;55.674;13.354;2023-04-30T02:57:12;2.20;;;2.10;;
17925;SDS011;9088;55.674;13.354;2023-04-30T02:59:39;2.10;;;2.00;;
17925;SDS011;9088;55.674;13.354;2023-04-30T03:02:09;2.30;;;2.20;;
17925;SDS011;9088;55.674;13.354;2023-04-30T03:04:36;2.30;;;2.20;;
17925;SDS011;9088;55.674;13.354;2023-04-30T03:07:05;2.60;;;2.50;;
17925;SDS011;9088;55.674;13.354;2023-04-30T03:09:32;2.60;;;2.50;;
17925;SDS011;9088;55.674;13.354;2023-04-30T03:11:59;2.60;;;2.50;;
17925;SDS011;9088;55.674;13.354;2023-04-30T03:14:26;2.70;;;2.60;;
17925;SDS011;9088;55.674;13.354;2023-04-30T03:16:54;2.70;;;2.60;;
17925;SDS011;9088;55.674;13.354;2023-04-30T03:19:21;2.80;;;2.70;;
17925;SDS011;9088;55.674;13.354;2023-04-30T03:21:49;2.80;;;2.70;;
17925;SDS011;9088;55.674;13.354;2023-04-30T03:24:17;2.73;;;2.63;;
17925;SDS011;9088;55.674;13.354;2023-04-30T03:26:44;2.60;;;2.50;;
17925;SDS011;9088;55.674;13.354;2023-04-30T03:29:11;2.50;;;2.40;;
17925;SDS011;9088;55.674;13.354;2023-04-30T03:31:38;2.40;;;2.30;;
17925;SDS011;9088;55.674;13.354;2023-04-30T03:34:05;2.40;;;2.30;;
17925;SDS011;9088;55.674;13.354;2023-04-30T03:36:32;2.30;;;2.20;;
17925;SDS011;9088;55.674;13.354;2023-04-30T03:39:00;2.50;;;2.40;;
17925;SDS011;9088;55.674;13.354;2023-04-30T03:41:29;2.50;;;2.40;;
17925;SDS011;9088;55.674;13.354;2023-04-30T03:43:57;2.40;;;2.30;;
17925;SDS011;9088;55.674;13.354;2023-04-30T03:46:24;4.67;;;4.47;;
17925;SDS011;9088;55.674;13.354;2023-04-30T03:48:51;4.80;;;4.60;;
17925;SDS011;9088;55.674;13.354;2023-04-30T03:51:18;4.70;;;4.50;;
17925;SDS011;9088;55.674;13.354;2023-04-30T03:53:45;4.70;;;4.50;;
17925;SDS011;9088;55.674;13.354;2023-04-30T03:56:12;4.90;;;4.70;;
17925;SDS011;9088;55.674;13.354;2023-04-30T03:58:41;4.73;;;4.53;;
17925;SDS011;9088;55.674;13.354;2023-04-30T04:01:08;4.90;;;4.70;;
17925;SDS011;9088;55.674;13.354;2023-04-30T04:03:35;5.00;;;4.80;;
17925;SDS011;9088;55.674;13.354;2023-04-30T04:06:02;4.90;;;4.70;;
17925;SDS011;9088;55.674;13.354;2023-04-30T04:08:29;4.80;;;4.60;;
17925;SDS011;9088;55.674;13.354;2023-04-30T04:10:58;4.80;;;4.60;;
17925;SDS011;9088;55.674;13.354;2023-04-30T04:13:25;4.80;;;4.60;;
17925;SDS011;9088;55.674;13.354;2023-04-30T04:15:53;4.80;;;4.60;;
17925;SDS011;9088;55.674;13.354;2023-04-30T04:18:20;4.70;;;4.50;;
17925;SDS011;9088;55.674;13.354;2023-04-30T04:20:47;4.40;;;4.20;;
17925;SDS011;9088;55.674;13.354;2023-04-30T04:23:14;4.40;;;4.20;;
17925;SDS011;9088;55.674;13.354;2023-04-30T04:25:41;4.60;;;4.40;;
17925;SDS011;9088;55.674;13.354;2023-04-30T04:28:10;4.37;;;4.17;;
17925;SDS011;9088;55.674;13.354;2023-04-30T04:30:39;4.10;;;4.00;;
17925;SDS011;9088;55.674;13.354;2023-04-30T04:33:08;4.10;;;4.00;;
17925;SDS011;9088;55.674;13.354;2023-04-30T04:35:35;4.10;;;4.00;;
17925;SDS011;9088;55.674;13.354;2023-04-30T04:38:02;4.30;;;4.10;;
17925;SDS011;9088;55.674;13.354;2023-04-30T04:40:29;4.00;;;3.90;;
17925;SDS011;9088;55.674;13.354;2023-04-30T04:42:56;4.10;;;4.00;;
17925;SDS011;9088;55.674;13.354;2023-04-30T04:45:23;4.30;;;4.10;;
17925;SDS011;9088;55.674;13.354;2023-04-30T04:47:50;4.20;;;4.10;;
17925;SDS011;9088;55.674;13.354;2023-04-30T04:50:19;4.23;;;4.10;;
17925;SDS011;9088;55.674;13.354;2023-04-30T04:52:46;4.10;;;4.00;;
17925;SDS011;9088;55.674;13.354;2023-04-30T04:55:13;4.00;;;3.90;;
17925;SDS011;9088;55.674;13.354;2023-04-30T04:57:40;4.10;;;4.00;;
17925;SDS011;9088;55.674;13.354;2023-04-30T05:00:07;4.00;;;3.90;;
17925;SDS011;9088;55.674;13.354;2023-04-30T05:02:36;4.10;;;4.00;;
17925;SDS011;9088;55.674;13.354;2023-04-30T05:05:04;4.10;;;4.00;;
17925;SDS011;9088;55.674;13.354;2023-04-30T05:07:33;4.10;;;4.00;;
17925;SDS011;9088;55.674;13.354;2023-04-30T05:10:00;4.40;;;4.20;;
17925;SDS011;9088;55.674;13.354;2023-04-30T05:12:27;4.40;;;4.20;;
17925;SDS011;9088;55.674;13.354;2023-04-30T05:14:55;4.37;;;4.20;;
17925;SDS011;9088;55.674;13.354;2023-04-30T05:17:22;4.13;;;4.03;;
17925;SDS011;9088;55.674;13.354;2023-04-30T05:19:50;3.77;;;3.67;;
17925;SDS011;9088;55.674;13.354;2023-04-30T05:22:17;3.60;;;3.50;;
17925;SDS011;9088;55.674;13.354;2023-04-30T05:24:45;3.40;;;3.30;;
17925;SDS011;9088;55.674;13.354;2023-04-30T05:27:12;3.40;;;3.30;;
17925;SDS011;9088;55.674;13.354;2023-04-30T05:29:40;3.40;;;3.30;;
17925;SDS011;9088;55.674;13.354;2023-04-30T05:32:07;3.50;;;3.40;;
17925;SDS011;9088;55.674;13.354;2023-04-30T05:34:34;3.60;;;3.50;;
17925;SDS011;9088;55.674;13.354;2023-04-30T05:37:01;3.30;;;3.20;;
17925;SDS011;9088;55.674;13.354;2023-04-30T05:39:28;3.20;;;3.10;;
17925;SDS011;9088;55.674;13.354;2023-04-30T05:41:57;3.30;;;3.20;;
17925;SDS011;9088;55.674;13.354;2023-04-30T05:44:24;3.00;;;2.90;;
17925;SDS011;9088;55.674;13.354;2023-04-30T05:46:54;3.00;;;2.90;;
17925;SDS011;9088;55.674;13.354;2023-04-30T05:49:22;2.80;;;2.70;;
17925;SDS011;9088;55.674;13.354;2023-04-30T05:51:49;2.67;;;2.57;;
17925;SDS011;9088;55.674;13.354;2023-04-30T05:54:16;2.60;;;2.50;;
17925;SDS011;9088;55.674;13.354;2023-04-30T05:56:43;2.80;;;2.70;;
17925;SDS011;9088;55.674;13.354;2023-04-30T05:59:11;2.80;;;2.70;;
17925;SDS011;9088;55.674;13.354;2023-04-30T06:01:38;2.50;;;2.40;;
17925;SDS011;9088;55.674;13.354;2023-04-30T06:04:06;2.50;;;2.40;;
17925;SDS011;9088;55.674;13.354;2023-04-30T06:06:33;2.30;;;2.20;;
17925;SDS011;9088;55.674;13.354;2023-04-30T06:09:00;2.40;;;2.30;;
17925;SDS011;9088;55.674;13.354;2023-04-30T06:11:28;2.10;;;2.00;;
17925;SDS011;9088;55.674;13.354;2023-04-30T06:13:55;2.13;;;2.03;;
17925;SDS011;9088;55.674;13.354;2023-04-30T06:16:23;2.20;;;2.10;;
17925;SDS011;9088;55.674;13.354;2023-04-30T06:18:50;2.30;;;2.20;;
17925;SDS011;9088;55.674;13.354;2023-04-30T06:21:17;2.20;;;2.10;;
17925;SDS011;9088;55.674;13.354;2023-04-30T06:23:45;2.30;;;2.20;;
17925;SDS011;9088;55.674;13.354;2023-04-30T06:26:12;1.93;;;1.90;;
17925;SDS011;9088;55.674;13.354;2023-04-30T06:28:39;2.20;;;2.10;;
17925;SDS011;9088;55.674;13.354;2023-04-30T06:31:06;1.97;;;1.90;;
17925;SDS011;9088;55.674;13.354;2023-04-30T06:33:35;1.90;;;1.90;;
17925;SDS011;9088;55.674;13.354;2023-04-30T06:36:02;2.10;;;2.00;;
17925;SDS011;9088;55.674;13.354;2023-04-30T06:38:29;1.70;;;1.70;;
17925;SDS011;9088;55.674;13.354;2023-04-30T06:40:56;1.70;;;1.70;;
17925;SDS011;9088;55.674;13.354;2023-04-30T06:43:23;1.60;;;1.60;;
17925;SDS011;9088;55.674;13.354;2023-04-30T06:45:52;1.80;;;1.80;;
17925;SDS011;9088;55.674;13.354;2023-04-30T06:48:24;1.63;;;1.63;;
17925;SDS011;9088;55.674;13.354;2023-04-30T06:50:55;1.60;;;1.60;;
17925;SDS011;9088;55.674;13.354;2023-04-30T06:53:23;1.60;;;1.60;;
17925;SDS011;9088;55.674;13.354;2023-04-30T06:55:51;1.70;;;1.70;;
17925;SDS011;9088;55.674;13.354;2023-04-30T06:58:20;1.60;;;1.60;;
17925;SDS011;9088;55.674;13.354;2023-04-30T07:00:48;1.60;;;1.60;;
17925;SDS011;9088;55.674;13.354;2023-04-30T07:03:19;1.70;;;1.70;;
17925;SDS011;9088;55.674;13.354;2023-04-30T07:05:48;1.50;;;1.50;;
17925;SDS011;9088;55.674;13.354;2023-04-30T07:08:18;1.50;;;1.50;;
17925;SDS011;9088;55.674;13.354;2023-04-30T07:10:46;1.50;;;1.50;;
17925;SDS011;9088;55.674;13.354;2023-04-30T07:13:15;1.40;;;1.40;;
17925;SDS011;9088;55.674;13.354;2023-04-30T07:15:42;1.50;;;1.50;;
17925;SDS011;9088;55.674;13.354;2023-04-30T07:18:10;1.40;;;1.40;;
17925;SDS011;9088;55.674;13.354;2023-04-30T07:20:38;1.30;;;1.30;;
17925;SDS011;9088;55.674;13.354;2023-04-30T07:23:06;1.40;;;1.40;;
17925;SDS011;9088;55.674;13.354;2023-04-30T07:25:38;1.80;;;1.80;;
17925;SDS011;9088;55.674;13.354;2023-04-30T07:28:06;2.10;;;2.00;;
17925;SDS011;9088;55.674;13.354;2023-04-30T07:30:33;2.10;;;2.00;;
17925;SDS011;9088;55.674;13.354;2023-04-30T07:33:01;1.73;;;1.73;;
17925;SDS011;9088;55.674;13.354;2023-04-30T07:35:29;1.70;;;1.70;;
17925;SDS011;9088;55.674;13.354;2023-04-30T07:37:56;1.80;;;1.80;;
17925;SDS011;9088;55.674;13.354;2023-04-30T07:40:24;1.80;;;1.80;;
17925;SDS011;9088;55.674;13.354;2023-04-30T07:42:53;1.63;;;1.63;;
17925;SDS011;9088;55.674;13.354;2023-04-30T07:45:21;2.00;;;1.93;;
17925;SDS011;9088;55.674;13.354;2023-04-30T07:47:48;2.20;;;2.10;;
17925;SDS011;9088;55.674;13.354;2023-04-30T07:50:16;2.10;;;2.00;;
17925;SDS011;9088;55.674;13.354;2023-04-30T07:52:44;1.83;;;1.83;;
17925;SDS011;9088;55.674;13.354;2023-04-30T07:55:11;1.93;;;1.90;;
17925;SDS011;9088;55.674;13.354;2023-04-30T07:57:40;2.20;;;2.10;;
17925;SDS011;9088;55.674;13.354;2023-04-30T08:00:12;2.10;;;2.00;;
17925;SDS011;9088;55.674;13.354;2023-04-30T08:02:40;1.80;;;1.80;;
17925;SDS011;9088;55.674;13.354;2023-04-30T08:05:10;1.93;;;1.90;;
17925;SDS011;9088;55.674;13.354;2023-04-30T08:07:37;2.00;;;1.90;;
17925;SDS011;9088;55.674;13.354;2023-04-30T08:10:06;1.80;;;1.80;;
17925;SDS011;9088;55.674;13.354;2023-04-30T08:12:34;1.80;;;1.80;;
17925;SDS011;9088;55.674;13.354;2023-04-30T08:15:03;1.60;;;1.60;;
17925;SDS011;9088;55.674;13.354;2023-04-30T08:17:33;1.50;;;1.50;;
17925;SDS011;9088;55.674;13.354;2023-04-30T08:20:01;1.63;;;1.63;;
17925;SDS011;9088;55.674;13.354;2023-04-30T08:22:29;1.70;;;1.70;;
17925;SDS011;9088;55.674;13.354;2023-04-30T08:24:57;1.73;;;1.73;;
17925;SDS011;9088;55.674;13.354;2023-04-30T08:27:26;1.60;;;1.60;;
17925;SDS011;9088;55.674;13.354;2023-04-30T08:29:53;1.70;;;1.70;;
17925;SDS011;9088;55.674;13.354;2023-04-30T08:32:21;1.60;;;1.60;;
17925;SDS011;9088;55.674;13.354;2023-04-30T08:34:50;1.70;;;1.70;;
17925;SDS011;9088;55.674;13.354;2023-04-30T08:37:18;1.60;;;1.60;;
17925;SDS011;9088;55.674;13.354;2023-04-30T08:39:46;1.60;;;1.60;;
17925;SDS011;9088;55.674;13.354;2023-04-30T08:42:13;1.63;;;1.63;;
17925;SDS011;9088;55.674;13.354;2023-04-30T08:44:41;1.80;;;1.80;;
17925;SDS011;9088;55.674;13.354;2023-04-30T08:47:10;1.63;;;1.63;;
17925;SDS011;9088;55.674;13.354;2023-04-30T08:49:41;1.70;;;1.70;;
17925;SDS011;9088;55.674;13.354;2023-04-30T08:52:11;1.70;;;1.70;;
17925;SDS011;9088;55.674;13.354;2023-04-30T08:54:41;1.63;;;1.63;;
17925;SDS011;9088;55.674;13.354;2023-04-30T08:57:10;1.80;;;1.80;;
17925;SDS011;9088;55.674;13.354;2023-04-30T08:59:38;1.70;;;1.70;;
17925;SDS011;9088;55.674;13.354;2023-04-30T09:02:06;1.60;;;1.60;;
17925;SDS011;9088;55.674;13.354;2023-04-30T09:04:34;1.97;;;1.90;;
17925;SDS011;9088;55.674;13.354;2023-04-30T09:07:03;1.70;;;1.70;;
17925;SDS011;9088;55.674;13.354;2023-04-30T09:09:36;1.80;;;1.80;;
17925;SDS011;9088;55.674;13.354;2023-04-30T09:12:10;1.83;;;1.83;;
17925;SDS011;9088;55.674;13.354;2023-04-30T09:14:39;1.90;;;1.90;;
17925;SDS011;9088;55.674;13.354;2023-04-30T09:17:07;1.77;;;1.77;;
17925;SDS011;9088;55.674;13.354;2023-04-30T09:19:34;1.80;;;1.80;;
17925;SDS011;9088;55.674;13.354;2023-04-30T09:22:17;1.80;;;1.80;;
17925;SDS011;9088;55.674;13.354;2023-04-30T09:24:46;1.80;;;1.80;;
17925;SDS011;9088;55.674;13.354;2023-04-30T09:27:15;1.80;;;1.80;;
17925;SDS011;9088;55.674;13.354;2023-04-30T09:29:43;2.00;;;1.90;;
17925;SDS011;9088;55.674;13.354;2023-04-30T09:32:11;1.80;;;1.80;;
17925;SDS011;9088;55.674;13.354;2023-04-30T09:34:39;1.80;;;1.80;;
17925;SDS011;9088;55.674;13.354;2023-04-30T09:37:07;1.80;;;1.80;;
17925;SDS011;9088;55.674;13.354;2023-04-30T09:42:19;1.70;;;1.70;;
17925;SDS011;9088;55.674;13.354;2023-04-30T09:44:47;1.83;;;1.83;;
17925;SDS011;9088;55.674;13.354;2023-04-30T09:47:15;1.87;;;1.83;;
17925;SDS011;9088;55.674;13.354;2023-04-30T09:49:46;1.80;;;1.80;;
17925;SDS011;9088;55.674;13.354;2023-04-30T09:52:16;1.70;;;1.70;;
17925;SDS011;9088;55.674;13.354;2023-04-30T09:54:46;1.60;;;1.60;;
17925;SDS011;9088;55.674;13.354;2023-04-30T09:57:14;1.90;;;1.90;;
17925;SDS011;9088;55.674;13.354;2023-04-30T09:59:44;1.70;;;1.70;;
17925;SDS011;9088;55.674;13.354;2023-04-30T10:02:14;1.80;;;1.80;;
17925;SDS011;9088;55.674;13.354;2023-04-30T10:04:43;1.80;;;1.80;;
17925;SDS011;9088;55.674;13.354;2023-04-30T10:07:12;1.80;;;1.80;;
17925;SDS011;9088;55.674;13.354;2023-04-30T10:09:41;2.00;;;1.90;;
17925;SDS011;9088;55.674;13.354;2023-04-30T10:12:12;1.80;;;1.80;;
17925;SDS011;9088;55.674;13.354;2023-04-30T10:14:48;1.80;;;1.80;;
17925;SDS011;9088;55.674;13.354;2023-04-30T10:17:18;1.80;;;1.80;;
17925;SDS011;9088;55.674;13.354;2023-04-30T10:19:47;2.10;;;2.00;;
17925;SDS011;9088;55.674;13.354;2023-04-30T10:22:15;2.07;;;1.97;;
17925;SDS011;9088;55.674;13.354;2023-04-30T10:24:43;1.93;;;1.90;;
17925;SDS011;9088;55.674;13.354;2023-04-30T10:27:11;1.93;;;1.90;;
17925;SDS011;9088;55.674;13.354;2023-04-30T10:29:39;1.90;;;1.90;;
17925;SDS011;9088;55.674;13.354;2023-04-30T10:32:09;2.10;;;2.00;;
17925;SDS011;9088;55.674;13.354;2023-04-30T10:34:42;1.90;;;1.90;;
17925;SDS011;9088;55.674;13.354;2023-04-30T10:37:14;2.17;;;2.07;;
17925;SDS011;9088;55.674;13.354;2023-04-30T10:39:44;2.10;;;2.00;;
17925;SDS011;9088;55.674;13.354;2023-04-30T10:42:12;2.10;;;2.00;;
17925;SDS011;9088;55.674;13.354;2023-04-30T10:44:40;2.00;;;1.90;;
17925;SDS011;9088;55.674;13.354;2023-04-30T10:47:10;2.07;;;1.97;;
17925;SDS011;9088;55.674;13.354;2023-04-30T10:49:38;1.70;;;1.70;;
17925;SDS011;9088;55.674;13.354;2023-04-30T10:52:09;1.97;;;1.90;;
17925;SDS011;9088;55.674;13.354;2023-04-30T10:54:37;2.00;;;1.90;;
17925;SDS011;9088;55.674;13.354;2023-04-30T10:57:09;2.07;;;1.97;;
17925;SDS011;9088;55.674;13.354;2023-04-30T10:59:40;1.70;;;1.70;;
17925;SDS011;9088;55.674;13.354;2023-04-30T11:02:12;1.80;;;1.80;;
17925;SDS011;9088;55.674;13.354;2023-04-30T11:07:27;2.10;;;2.00;;
17925;SDS011;9088;55.674;13.354;2023-04-30T11:09:55;2.10;;;2.00;;
17925;SDS011;9088;55.674;13.354;2023-04-30T11:12:25;2.03;;;1.93;;
17925;SDS011;9088;55.674;13.354;2023-04-30T11:15:00;1.80;;;1.80;;
17925;SDS011;9088;55.674;13.354;2023-04-30T11:17:30;1.90;;;1.90;;
17925;SDS011;9088;55.674;13.354;2023-04-30T11:19:59;2.10;;;2.00;;
17925;SDS011;9088;55.674;13.354;2023-04-30T11:22:27;2.00;;;1.90;;
17925;SDS011;9088;55.674;13.354;2023-04-30T11:25:01;1.90;;;1.90;;
17925;SDS011;9088;55.674;13.354;2023-04-30T11:27:30;1.80;;;1.80;;
17925;SDS011;9088;55.674;13.354;2023-04-30T11:29:58;1.80;;;1.80;;
17925;SDS011;9088;55.674;13.354;2023-04-30T11:32:30;1.87;;;1.87;;
17925;SDS011;9088;55.674;13.354;2023-04-30T11:35:00;2.00;;;1.90;;
17925;SDS011;9088;55.674;13.354;2023-04-30T11:37:31;1.90;;;1.90;;
17925;SDS011;9088;55.674;13.354;2023-04-30T11:39:59;1.80;;;1.80;;
17925;SDS011;9088;55.674;13.354;2023-04-30T11:42:28;2.10;;;2.00;;
17925;SDS011;9088;55.674;13.354;2023-04-30T11:45:06;1.80;;;1.80;;
17925;SDS011;9088;55.674;13.354;2023-04-30T11:47:41;2.10;;;2.00;;
17925;SDS011;9088;55.674;13.354;2023-04-30T11:50:10;2.10;;;2.00;;
17925;SDS011;9088;55.674;13.354;2023-04-30T11:52:38;1.70;;;1.70;;
17925;SDS011;9088;55.674;13.354;2023-04-30T11:55:07;1.70;;;1.70;;
17925;SDS011;9088;55.674;13.354;2023-04-30T11:57:38;1.70;;;1.70;;
17925;SDS011;9088;55.674;13.354;2023-04-30T12:00:06;1.70;;;1.70;;
17925;SDS011;9088;55.674;13.354;2023-04-30T12:02:35;1.80;;;1.80;;
17925;SDS011;9088;55.674;13.354;2023-04-30T12:05:04;1.83;;;1.83;;
17925;SDS011;9088;55.674;13.354;2023-04-30T12:07:33;1.80;;;1.80;;
17925;SDS011;9088;55.674;13.354;2023-04-30T12:10:01;1.93;;;1.90;;
17925;SDS011;9088;55.674;13.354;2023-04-30T12:12:29;1.87;;;1.87;;
17925;SDS011;9088;55.674;13.354;2023-04-30T12:14:57;1.80;;;1.80;;
17925;SDS011;9088;55.674;13.354;2023-04-30T12:17:31;1.90;;;1.90;;
17925;SDS011;9088;55.674;13.354;2023-04-30T12:19:59;2.00;;;1.90;;
17925;SDS011;9088;55.674;13.354;2023-04-30T12:22:26;1.70;;;1.70;;
17925;SDS011;9088;55.674;13.354;2023-04-30T12:24:57;1.77;;;1.77;;
17925;SDS011;9088;55.674;13.354;2023-04-30T12:27:25;2.07;;;1.97;;
17925;SDS011;9088;55.674;13.354;2023-04-30T12:29:53;2.00;;;1.90;;
17925;SDS011;9088;55.674;13.354;2023-04-30T12:32:21;1.90;;;1.90;;
17925;SDS011;9088;55.674;13.354;2023-04-30T12:34:49;1.90;;;1.90;;
17925;SDS011;9088;55.674;13.354;2023-04-30T12:37:16;1.83;;;1.83;;
17925;SDS011;9088;55.674;13.354;2023-04-30T12:39:44;1.90;;;1.90;;
17925;SDS011;9088;55.674;13.354;2023-04-30T12:42:18;1.60;;;1.60;;
17925;SDS011;9088;55.674;13.354;2023-04-30T12:47:21;1.83;;;1.83;;
17925;SDS011;9088;55.674;13.354;2023-04-30T12:49:50;1.53;;;1.53;;
17925;SDS011;9088;55.674;13.354;2023-04-30T12:52:21;1.50;;;1.50;;
17925;SDS011;9088;55.674;13.354;2023-04-30T12:54:49;1.57;;;1.57;;
17925;SDS011;9088;55.674;13.354;2023-04-30T12:57:18;1.70;;;1.70;;
17925;SDS011;9088;55.674;13.354;2023-04-30T12:59:56;1.70;;;1.70;;
17925;SDS011;9088;55.674;13.354;2023-04-30T13:02:24;1.60;;;1.60;;
17925;SDS011;9088;55.674;13.354;2023-04-30T13:04:52;1.63;;;1.63;;
17925;SDS011;9088;55.674;13.354;2023-04-30T13:07:21;1.50;;;1.50;;
17925;SDS011;9088;55.674;13.354;2023-04-30T13:09:49;1.80;;;1.80;;
17925;SDS011;9088;55.674;13.354;2023-04-30T13:12:16;1.70;;;1.70;;
17925;SDS011;9088;55.674;13.354;2023-04-30T13:14:46;1.80;;;1.80;;
17925;SDS011;9088;55.674;13.354;2023-04-30T13:17:13;1.80;;;1.80;;
17925;SDS011;9088;55.674;13.354;2023-04-30T13:19:41;1.60;;;1.60;;
17925;SDS011;9088;55.674;13.354;2023-04-30T13:22:09;1.80;;;1.80;;
17925;SDS011;9088;55.674;13.354;2023-04-30T13:27:07;1.80;;;1.80;;
17925;SDS011;9088;55.674;13.354;2023-04-30T13:29:35;2.00;;;1.90;;
17925;SDS011;9088;55.674;13.354;2023-04-30T13:32:04;1.70;;;1.70;;
17925;SDS011;9088;55.674;13.354;2023-04-30T13:34:32;1.70;;;1.70;;
17925;SDS011;9088;55.674;13.354;2023-04-30T13:37:00;1.50;;;1.50;;
17925;SDS011;9088;55.674;13.354;2023-04-30T13:39:27;1.80;;;1.80;;
17925;SDS011;9088;55.674;13.354;2023-04-30T13:41:55;1.80;;;1.80;;
17925;SDS011;9088;55.674;13.354;2023-04-30T13:44:24;1.50;;;1.50;;
17925;SDS011;9088;55.674;13.354;2023-04-30T13:46:51;1.77;;;1.77;;
17925;SDS011;9088;55.674;13.354;2023-04-30T13:49:21;1.70;;;1.70;;
17925;SDS011;9088;55.674;13.354;2023-04-30T13:51:48;1.80;;;1.80;;
17925;SDS011;9088;55.674;13.354;2023-04-30T13:54:16;1.80;;;1.80;;
17925;SDS011;9088;55.674;13.354;2023-04-30T13:56:44;1.80;;;1.80;;
17925;SDS011;9088;55.674;13.354;2023-04-30T13:59:13;1.60;;;1.60;;
17925;SDS011;9088;55.674;13.354;2023-04-30T14:01:41;1.70;;;1.70;;
17925;SDS011;9088;55.674;13.354;2023-04-30T14:04:09;1.60;;;1.60;;
17925;SDS011;9088;55.674;13.354;2023-04-30T14:06:40;1.67;;;1.67;;
17925;SDS011;9088;55.674;13.354;2023-04-30T14:09:09;1.70;;;1.70;;
17925;SDS011;9088;55.674;13.354;2023-04-30T14:11:37;1.80;;;1.80;;
17925;SDS011;9088;55.674;13.354;2023-04-30T14:14:06;1.60;;;1.60;;
17925;SDS011;9088;55.674;13.354;2023-04-30T14:16:34;1.60;;;1.60;;
17925;SDS011;9088;55.674;13.354;2023-04-30T14:19:02;1.70;;;1.70;;
17925;SDS011;9088;55.674;13.354;2023-04-30T14:21:30;1.53;;;1.53;;
17925;SDS011;9088;55.674;13.354;2023-04-30T14:23:59;1.60;;;1.60;;
17925;SDS011;9088;55.674;13.354;2023-04-30T14:26:27;1.70;;;1.70;;
17925;SDS011;9088;55.674;13.354;2023-04-30T14:28:54;1.60;;;1.60;;
17925;SDS011;9088;55.674;13.354;2023-04-30T14:31:22;1.70;;;1.70;;
17925;SDS011;9088;55.674;13.354;2023-04-30T14:33:49;1.50;;;1.50;;
17925;SDS011;9088;55.674;13.354;2023-04-30T14:36:17;1.70;;;1.70;;
17925;SDS011;9088;55.674;13.354;2023-04-30T14:38:45;1.70;;;1.70;;
17925;SDS011;9088;55.674;13.354;2023-04-30T14:41:14;1.60;;;1.60;;
17925;SDS011;9088;55.674;13.354;2023-04-30T14:43:41;1.47;;;1.47;;
17925;SDS011;9088;55.674;13.354;2023-04-30T14:46:09;1.60;;;1.60;;
17925;SDS011;9088;55.674;13.354;2023-04-30T14:48:37;1.70;;;1.70;;
17925;SDS011;9088;55.674;13.354;2023-04-30T14:51:04;1.60;;;1.60;;
17925;SDS011;9088;55.674;13.354;2023-04-30T14:53:32;1.63;;;1.63;;
17925;SDS011;9088;55.674;13.354;2023-04-30T14:56:01;1.60;;;1.60;;
17925;SDS011;9088;55.674;13.354;2023-04-30T14:58:32;1.57;;;1.57;;
17925;SDS011;9088;55.674;13.354;2023-04-30T15:01:00;1.77;;;1.77;;
17925;SDS011;9088;55.674;13.354;2023-04-30T15:03:27;1.67;;;1.67;;
17925;SDS011;9088;55.674;13.354;2023-04-30T15:05:56;1.70;;;1.70;;
17925;SDS011;9088;55.674;13.354;2023-04-30T15:08:23;1.80;;;1.80;;